sensor_id;sensor_type;location;lat;lon;timestamp;pressure;altitude;pressure_sealevel;temperature;humidity
51928;BME280;37953;52.806;18.270;2023-03-17T00:02:23;101412.09;;;2.20;100.00
51928;BME280;37953;52.806;18.270;2023-03-17T00:04:49;101407.88;;;2.20;100.00
51928;BME280;37953;52.806;18.270;2023-03-17T00:07:15;101408.81;;;2.22;100.00
51928;BME280;37953;52.806;18.270;2023-03-17T00:09:41;101404.56;;;2.23;100.00
51928;BME280;37953;52.806;18.270;2023-03-17T00:12:08;101396.97;;;2.24;100.00
51928;BME280;37953;52.806;18.270;2023-03-17T00:14:34;101405.34;;;2.22;100.00
51928;BME280;37953;52.806;18.270;2023-03-17T00:17:05;101408.00;;;2.23;100.00
51928;BME280;37953;52.806;18.270;2023-03-17T00:19:32;101408.81;;;2.22;100.00
51928;BME280;37953;52.806;18.270;2023-03-17T00:21:59;101409.63;;;2.21;100.00
51928;BME280;37953;52.806;18.270;2023-03-17T00:24:25;101408.75;;;2.21;100.00
51928;BME280;37953;52.806;18.270;2023-03-17T00:26:51;101418.13;;;2.20;100.00
51928;BME280;37953;52.806;18.270;2023-03-17T00:29:17;101419.72;;;2.18;100.00
51928;BME280;37953;52.806;18.270;2023-03-17T00:31:44;101424.75;;;2.17;100.00
51928;BME280;37953;52.806;18.270;2023-03-17T00:34:14;101420.41;;;2.16;100.00
51928;BME280;37953;52.806;18.270;2023-03-17T00:36:49;101410.97;;;2.15;100.00
51928;BME280;37953;52.806;18.270;2023-03-17T00:39:15;101400.72;;;2.15;100.00
51928;BME280;37953;52.806;18.270;2023-03-17T00:41:48;101405.94;;;2.16;100.00
51928;BME280;37953;52.806;18.270;2023-03-17T00:44:14;101400.00;;;2.17;100.00
51928;BME280;37953;52.806;18.270;2023-03-17T00:46:40;101396.66;;;2.18;100.00
51928;BME280;37953;52.806;18.270;2023-03-17T00:49:16;101384.72;;;2.19;100.00
51928;BME280;37953;52.806;18.270;2023-03-17T00:51:43;101385.66;;;2.21;100.00
51928;BME280;37953;52.806;18.270;2023-03-17T00:54:09;101383.09;;;2.21;100.00
51928;BME280;37953;52.806;18.270;2023-03-17T00:56:36;101377.16;;;2.22;100.00
51928;BME280;37953;52.806;18.270;2023-03-17T00:59:01;101377.16;;;2.22;100.00
51928;BME280;37953;52.806;18.270;2023-03-17T01:01:28;101386.53;;;2.21;100.00
51928;BME280;37953;52.806;18.270;2023-03-17T01:03:54;101389.00;;;2.20;100.00
51928;BME280;37953;52.806;18.270;2023-03-17T01:06:20;101384.78;;;2.20;100.00
51928;BME280;37953;52.806;18.270;2023-03-17T01:08:45;101384.72;;;2.19;100.00
51928;BME280;37953;52.806;18.270;2023-03-17T01:11:13;101388.06;;;2.18;100.00
51928;BME280;37953;52.806;18.270;2023-03-17T01:13:45;101385.50;;;2.18;100.00
51928;BME280;37953;52.806;18.270;2023-03-17T01:16:11;101388.16;;;2.19;100.00
51928;BME280;37953;52.806;18.270;2023-03-17T01:18:37;101381.28;;;2.18;100.00
51928;BME280;37953;52.806;18.270;2023-03-17T01:21:03;101376.16;;;2.18;100.00
51928;BME280;37953;52.806;18.270;2023-03-17T01:23:29;101382.94;;;2.18;100.00
51928;BME280;37953;52.806;18.270;2023-03-17T01:25:56;101377.81;;;2.18;100.00
51928;BME280;37953;52.806;18.270;2023-03-17T01:28:21;101376.06;;;2.17;100.00
51928;BME280;37953;52.806;18.270;2023-03-17T01:30:47;101380.38;;;2.18;100.00
51928;BME280;37953;52.806;18.270;2023-03-17T01:33:14;101374.28;;;2.16;100.00
51928;BME280;37953;52.806;18.270;2023-03-17T01:35:40;101384.53;;;2.16;100.00
51928;BME280;37953;52.806;18.270;2023-03-17T01:38:06;101387.09;;;2.16;100.00
51928;BME280;37953;52.806;18.270;2023-03-17T01:48:19;101390.16;;;2.09;100.00
51928;BME280;37953;52.806;18.270;2023-03-17T01:50:45;101389.09;;;2.05;100.00
51928;BME280;37953;52.806;18.270;2023-03-17T01:53:17;101384.72;;;2.02;100.00
51928;BME280;37953;52.806;18.270;2023-03-17T01:55:45;101388.88;;;2.00;100.00
51928;BME280;37953;52.806;18.270;2023-03-17T01:58:11;101377.66;;;1.98;100.00
51928;BME280;37953;52.806;18.270;2023-03-17T02:00:39;101369.09;;;1.98;100.00
51928;BME280;37953;52.806;18.270;2023-03-17T02:03:05;101372.47;;;1.97;100.00
51928;BME280;37953;52.806;18.270;2023-03-17T02:05:37;101366.44;;;1.96;100.00
51928;BME280;37953;52.806;18.270;2023-03-17T02:08:10;101361.28;;;1.95;100.00
51928;BME280;37953;52.806;18.270;2023-03-17T02:10:36;101361.09;;;1.92;100.00
51928;BME280;37953;52.806;18.270;2023-03-17T02:13:02;101350.69;;;1.89;100.00
51928;BME280;37953;52.806;18.270;2023-03-17T02:18:02;101355.56;;;1.84;100.00
51928;BME280;37953;52.806;18.270;2023-03-17T02:22:54;101355.31;;;1.79;100.00
51928;BME280;37953;52.806;18.270;2023-03-17T02:25:22;101347.56;;;1.78;100.00
51928;BME280;37953;52.806;18.270;2023-03-17T02:27:56;101343.25;;;1.77;100.00
51928;BME280;37953;52.806;18.270;2023-03-17T02:30:24;101339.81;;;1.76;100.00
51928;BME280;37953;52.806;18.270;2023-03-17T02:32:50;101343.16;;;1.75;100.00
51928;BME280;37953;52.806;18.270;2023-03-17T02:35:16;101344.06;;;1.76;100.00
51928;BME280;37953;52.806;18.270;2023-03-17T02:37:42;101338.94;;;1.76;100.00
51928;BME280;37953;52.806;18.270;2023-03-17T02:40:11;101340.59;;;1.75;100.00
51928;BME280;37953;52.806;18.270;2023-03-17T02:42:38;101333.81;;;1.76;100.00
51928;BME280;37953;52.806;18.270;2023-03-17T02:45:07;101339.81;;;1.76;100.00
51928;BME280;37953;52.806;18.270;2023-03-17T02:47:39;101349.22;;;1.77;100.00
51928;BME280;37953;52.806;18.270;2023-03-17T02:50:08;101351.97;;;1.80;100.00
51928;BME280;37953;52.806;18.270;2023-03-17T02:52:34;101358.06;;;1.82;100.00
51928;BME280;37953;52.806;18.270;2023-03-17T02:55:00;101353.91;;;1.85;100.00
51928;BME280;37953;52.806;18.270;2023-03-17T02:57:25;101356.59;;;1.88;100.00
51928;BME280;37953;52.806;18.270;2023-03-17T02:59:51;101355.88;;;1.90;100.00
51928;BME280;37953;52.806;18.270;2023-03-17T03:02:17;101356.84;;;1.92;100.00
51928;BME280;37953;52.806;18.270;2023-03-17T03:04:43;101348.38;;;1.93;100.00
51928;BME280;37953;52.806;18.270;2023-03-17T03:07:09;101343.38;;;1.96;100.00
51928;BME280;37953;52.806;18.270;2023-03-17T03:09:36;101340.03;;;1.97;100.00
51928;BME280;37953;52.806;18.270;2023-03-17T03:12:02;101345.31;;;2.00;100.00
51928;BME280;37953;52.806;18.270;2023-03-17T04:38:05;101317.13;;;1.84;100.00
51928;BME280;37953;52.806;18.270;2023-03-17T04:40:31;101317.13;;;1.84;100.00
51928;BME280;37953;52.806;18.270;2023-03-17T04:42:57;101319.78;;;1.86;100.00
51928;BME280;37953;52.806;18.270;2023-03-17T04:45:23;101313.78;;;1.85;100.00
51928;BME280;37953;52.806;18.270;2023-03-17T04:47:49;101319.78;;;1.86;100.00
51928;BME280;37953;52.806;18.270;2023-03-17T04:50:15;101313.78;;;1.85;100.00
51928;BME280;37953;52.806;18.270;2023-03-17T04:52:42;101313.78;;;1.85;100.00
51928;BME280;37953;52.806;18.270;2023-03-17T04:55:08;101312.09;;;1.86;100.00
51928;BME280;37953;52.806;18.270;2023-03-17T04:57:35;101318.09;;;1.86;100.00
51928;BME280;37953;52.806;18.270;2023-03-17T05:00:02;101317.22;;;1.86;100.00
51928;BME280;37953;52.806;18.270;2023-03-17T05:02:28;101311.22;;;1.85;100.00
51928;BME280;37953;52.806;18.270;2023-03-17T05:04:54;101306.88;;;1.84;100.00
51928;BME280;37953;52.806;18.270;2023-03-17T05:07:19;101312.00;;;1.84;100.00
51928;BME280;37953;52.806;18.270;2023-03-17T05:09:45;101314.56;;;1.84;100.00
51928;BME280;37953;52.806;18.270;2023-03-17T05:12:12;101323.16;;;1.85;100.00
51928;BME280;37953;52.806;18.270;2023-03-17T05:14:39;101318.81;;;1.83;100.00
51928;BME280;37953;52.806;18.270;2023-03-17T05:17:06;101322.25;;;1.84;100.00
51928;BME280;37953;52.806;18.270;2023-03-17T05:19:35;101328.19;;;1.83;100.00
51928;BME280;37953;52.806;18.270;2023-03-17T05:22:00;101321.28;;;1.82;100.00
51928;BME280;37953;52.806;18.270;2023-03-17T05:24:26;101315.38;;;1.83;100.00
51928;BME280;37953;52.806;18.270;2023-03-17T05:26:52;101313.69;;;1.83;100.00
51928;BME280;37953;52.806;18.270;2023-03-17T05:29:18;101311.13;;;1.83;100.00
51928;BME280;37953;52.806;18.270;2023-03-17T05:31:43;101309.63;;;1.87;100.00
51928;BME280;37953;52.806;18.270;2023-03-17T05:34:09;101305.53;;;1.91;100.00
51928;BME280;37953;52.806;18.270;2023-03-17T05:36:35;101311.75;;;1.96;100.00
51928;BME280;37953;52.806;18.270;2023-03-17T05:39:02;101319.69;;;2.00;100.00
51928;BME280;37953;52.806;18.270;2023-03-17T05:41:28;101325.94;;;2.06;100.00
51928;BME280;37953;52.806;18.270;2023-03-17T05:43:54;101321.81;;;2.09;100.00
51928;BME280;37953;52.806;18.270;2023-03-17T05:46:20;101311.81;;;2.14;100.00
51928;BME280;37953;52.806;18.270;2023-03-17T05:48:47;101320.53;;;2.17;100.00
51928;BME280;37953;52.806;18.270;2023-03-17T05:51:13;101319.88;;;2.21;100.00
51928;BME280;37953;52.806;18.270;2023-03-17T05:53:39;101310.69;;;2.25;100.00
51928;BME280;37953;52.806;18.270;2023-03-17T05:56:05;101308.25;;;2.28;100.00
51928;BME280;37953;52.806;18.270;2023-03-17T05:58:31;101313.56;;;2.31;100.00
51928;BME280;37953;52.806;18.270;2023-03-17T06:00:56;101316.25;;;2.34;100.00
51928;BME280;37953;52.806;18.270;2023-03-17T06:03:22;101321.59;;;2.39;100.00
51928;BME280;37953;52.806;18.270;2023-03-17T06:05:48;101314.88;;;2.41;100.00
51928;BME280;37953;52.806;18.270;2023-03-17T06:08:14;101309.91;;;2.44;100.00
51928;BME280;37953;52.806;18.270;2023-03-17T06:10:40;101314.31;;;2.47;100.00
51928;BME280;37953;52.806;18.270;2023-03-17T06:13:06;101312.69;;;2.49;100.00
51928;BME280;37953;52.806;18.270;2023-03-17T06:15:32;101313.66;;;2.51;100.00
51928;BME280;37953;52.806;18.270;2023-03-17T06:18:00;101306.91;;;2.53;100.00
51928;BME280;37953;52.806;18.270;2023-03-17T06:20:26;101311.31;;;2.55;100.00
51928;BME280;37953;52.806;18.270;2023-03-17T06:22:52;101314.03;;;2.58;100.00
51928;BME280;37953;52.806;18.270;2023-03-17T06:25:17;101313.28;;;2.61;100.00
51928;BME280;37953;52.806;18.270;2023-03-17T06:27:44;101316.00;;;2.64;100.00
51928;BME280;37953;52.806;18.270;2023-03-17T06:30:10;101323.03;;;2.68;100.00
51928;BME280;37953;52.806;18.270;2023-03-17T06:32:36;101328.31;;;2.71;100.00
51928;BME280;37953;52.806;18.270;2023-03-17T06:35:02;101316.47;;;2.73;100.00
51928;BME280;37953;52.806;18.270;2023-03-17T06:37:30;101323.50;;;2.77;100.00
51928;BME280;37953;52.806;18.270;2023-03-17T06:39:55;101319.38;;;2.81;100.00
51928;BME280;37953;52.806;18.270;2023-03-17T06:42:29;101314.44;;;2.85;100.00
51928;BME280;37953;52.806;18.270;2023-03-17T06:44:54;101306.03;;;2.88;100.00
51928;BME280;37953;52.806;18.270;2023-03-17T06:47:20;101290.78;;;2.91;100.00
51928;BME280;37953;52.806;18.270;2023-03-17T06:49:46;101296.94;;;2.95;100.00
51928;BME280;37953;52.806;18.270;2023-03-17T06:52:13;101291.06;;;2.97;100.00
51928;BME280;37953;52.806;18.270;2023-03-17T06:54:38;101291.16;;;2.99;100.00
51928;BME280;37953;52.806;18.270;2023-03-17T06:57:05;101293.84;;;3.02;100.00
51928;BME280;37953;52.806;18.270;2023-03-17T06:59:31;101291.44;;;3.05;100.00
51928;BME280;37953;52.806;18.270;2023-03-17T07:01:57;101293.25;;;3.08;100.00
51928;BME280;37953;52.806;18.270;2023-03-17T07:04:23;101287.28;;;3.09;100.00
51928;BME280;37953;52.806;18.270;2023-03-17T07:06:49;101303.66;;;3.11;100.00
51928;BME280;37953;52.806;18.270;2023-03-17T07:09:15;101308.03;;;3.13;100.00
51928;BME280;37953;52.806;18.270;2023-03-17T07:11:43;101296.97;;;3.14;100.00
51928;BME280;37953;52.806;18.270;2023-03-17T07:14:09;101302.25;;;3.17;100.00
51928;BME280;37953;52.806;18.270;2023-03-17T07:16:35;101300.63;;;3.19;100.00
51928;BME280;37953;52.806;18.270;2023-03-17T07:19:01;101304.16;;;3.21;100.00
51928;BME280;37953;52.806;18.270;2023-03-17T07:21:27;101303.44;;;3.24;100.00
51928;BME280;37953;52.806;18.270;2023-03-17T07:23:59;101299.16;;;3.24;100.00
51928;BME280;37953;52.806;18.270;2023-03-17T07:26:26;101312.13;;;3.28;100.00
51928;BME280;37953;52.806;18.270;2023-03-17T07:28:52;101308.81;;;3.30;100.00
51928;BME280;37953;52.806;18.270;2023-03-17T07:31:17;101319.16;;;3.32;100.00
51928;BME280;37953;52.806;18.270;2023-03-17T07:33:44;101321.00;;;3.34;100.00
51928;BME280;37953;52.806;18.270;2023-03-17T07:36:10;101322.75;;;3.35;100.00
51928;BME280;37953;52.806;18.270;2023-03-17T07:38:35;101315.13;;;3.37;100.00
51928;BME280;37953;52.806;18.270;2023-03-17T07:41:02;101311.81;;;3.39;100.00
51928;BME280;37953;52.806;18.270;2023-03-17T07:43:29;101308.50;;;3.42;100.00
51928;BME280;37953;52.806;18.270;2023-03-17T07:45:55;101301.75;;;3.44;100.00
51928;BME280;37953;52.806;18.270;2023-03-17T07:48:21;101311.19;;;3.45;100.00
51928;BME280;37953;52.806;18.270;2023-03-17T07:50:47;101314.72;;;3.47;100.00
51928;BME280;37953;52.806;18.270;2023-03-17T07:53:13;101314.78;;;3.49;100.00
51928;BME280;37953;52.806;18.270;2023-03-17T07:55:39;101307.09;;;3.49;100.00
51928;BME280;37953;52.806;18.270;2023-03-17T07:58:05;101308.03;;;3.51;100.00
51928;BME280;37953;52.806;18.270;2023-03-17T08:00:32;101314.13;;;3.53;100.00
51928;BME280;37953;52.806;18.270;2023-03-17T08:02:58;101313.47;;;3.57;100.00
51928;BME280;37953;52.806;18.270;2023-03-17T08:05:24;101319.66;;;3.62;100.00
51928;BME280;37953;52.806;18.270;2023-03-17T08:07:50;101316.41;;;3.66;100.00
51928;BME280;37953;52.806;18.270;2023-03-17T08:10:16;101327.88;;;3.73;100.00
51928;BME280;37953;52.806;18.270;2023-03-17T08:12:42;101334.97;;;3.78;100.00
51928;BME280;37953;52.806;18.270;2023-03-17T08:15:09;101333.53;;;3.85;100.00
51928;BME280;37953;52.806;18.270;2023-03-17T08:17:35;101337.28;;;3.92;100.00
51928;BME280;37953;52.806;18.270;2023-03-17T08:20:07;101344.44;;;3.99;100.00
51928;BME280;37953;52.806;18.270;2023-03-17T08:22:34;101335.22;;;4.04;100.00
51928;BME280;37953;52.806;18.270;2023-03-17T08:25:00;101323.50;;;4.11;100.00
51928;BME280;37953;52.806;18.270;2023-03-17T08:27:27;101315.94;;;4.14;100.00
51928;BME280;37953;52.806;18.270;2023-03-17T08:29:53;101307.53;;;4.18;100.00
51928;BME280;37953;52.806;18.270;2023-03-17T08:32:18;101298.25;;;4.21;100.00
51928;BME280;37953;52.806;18.270;2023-03-17T08:34:44;101298.44;;;4.26;100.00
51928;BME280;37953;52.806;18.270;2023-03-17T08:37:10;101296.84;;;4.29;100.00
51928;BME280;37953;52.806;18.270;2023-03-17T08:39:36;101291.09;;;4.35;100.00
51928;BME280;37953;52.806;18.270;2023-03-17T08:42:02;101293.06;;;4.41;100.00
51928;BME280;37953;52.806;18.270;2023-03-17T08:44:29;101289.84;;;4.46;100.00
51928;BME280;37953;52.806;18.270;2023-03-17T08:46:54;101287.47;;;4.51;100.00
51928;BME280;37953;52.806;18.270;2023-03-17T08:49:21;101281.69;;;4.57;100.00
51928;BME280;37953;52.806;18.270;2023-03-17T08:51:47;101275.91;;;4.62;100.00
51928;BME280;37953;52.806;18.270;2023-03-17T08:54:13;101278.72;;;4.68;100.00
51928;BME280;37953;52.806;18.270;2023-03-17T08:56:39;101276.34;;;4.73;100.00
51928;BME280;37953;52.806;18.270;2023-03-17T09:01:40;101273.38;;;4.85;100.00
51928;BME280;37953;52.806;18.270;2023-03-17T09:04:06;101270.97;;;4.89;100.00
51928;BME280;37953;52.806;18.270;2023-03-17T09:06:32;101267.81;;;4.97;100.00
51928;BME280;37953;52.806;18.270;2023-03-17T09:08:58;101276.69;;;5.05;100.00
51928;BME280;37953;52.806;18.270;2023-03-17T09:11:26;101271.78;;;5.11;100.00
51928;BME280;37953;52.806;18.270;2023-03-17T09:13:52;101261.72;;;5.17;100.00
51928;BME280;37953;52.806;18.270;2023-03-17T09:16:19;101259.38;;;5.23;100.00
51928;BME280;37953;52.806;18.270;2023-03-17T09:18:45;101262.19;;;5.29;100.00
51928;BME280;37953;52.806;18.270;2023-03-17T09:21:12;101260.56;;;5.33;100.00
51928;BME280;37953;52.806;18.270;2023-03-17T09:23:38;101264.22;;;5.38;100.00
51928;BME280;37953;52.806;18.270;2023-03-17T09:26:04;101262.59;;;5.42;100.00
51928;BME280;37953;52.806;18.270;2023-03-17T09:31:01;101241.34;;;5.47;100.00
51928;BME280;37953;52.806;18.270;2023-03-17T09:33:27;101233.75;;;5.52;100.00
51928;BME280;37953;52.806;18.270;2023-03-17T09:35:53;101235.63;;;5.56;100.00
51928;BME280;37953;52.806;18.270;2023-03-17T09:38:25;101228.97;;;5.61;100.00
51928;BME280;37953;52.806;18.270;2023-03-17T09:40:54;101222.25;;;5.66;100.00
51928;BME280;37953;52.806;18.270;2023-03-17T09:46:21;101221.75;;;5.77;100.00
51928;BME280;37953;52.806;18.270;2023-03-17T09:48:58;101225.34;;;5.82;100.00
51928;BME280;37953;52.806;18.270;2023-03-17T09:51:26;101211.78;;;5.87;100.00
51928;BME280;37953;52.806;18.270;2023-03-17T09:54:01;101217.09;;;5.92;100.00
51928;BME280;37953;52.806;18.270;2023-03-17T09:56:32;101210.44;;;5.97;100.00
51928;BME280;37953;52.806;18.270;2023-03-17T09:59:04;101223.56;;;6.03;100.00
51928;BME280;37953;52.806;18.270;2023-03-17T10:01:42;101206.50;;;6.08;100.00
51928;BME280;37953;52.806;18.270;2023-03-17T10:04:09;101204.06;;;6.13;100.00
51928;BME280;37953;52.806;18.270;2023-03-17T10:06:36;101195.63;;;6.17;100.00
51928;BME280;37953;52.806;18.270;2023-03-17T10:09:17;101194.06;;;6.22;100.00
51928;BME280;37953;52.806;18.270;2023-03-17T10:11:48;101185.63;;;6.28;100.00
51928;BME280;37953;52.806;18.270;2023-03-17T10:17:02;101196.25;;;6.37;99.12
51928;BME280;37953;52.806;18.270;2023-03-17T10:19:34;101182.66;;;6.43;96.65
51928;BME280;37953;52.806;18.270;2023-03-17T10:22:04;101189.66;;;6.47;95.33
51928;BME280;37953;52.806;18.270;2023-03-17T10:24:33;101182.91;;;6.50;93.16
51928;BME280;37953;52.806;18.270;2023-03-17T10:27:02;101179.53;;;6.53;92.91
51928;BME280;37953;52.806;18.270;2023-03-17T10:29:29;101176.22;;;6.57;94.22
51928;BME280;37953;52.806;18.270;2023-03-17T10:32:01;101167.75;;;6.61;93.58
51928;BME280;37953;52.806;18.270;2023-03-17T10:34:33;101149.72;;;6.63;92.46
51928;BME280;37953;52.806;18.270;2023-03-17T10:37:07;101154.16;;;6.67;92.04
51928;BME280;37953;52.806;18.270;2023-03-17T10:39:41;101154.22;;;6.70;92.16
51928;BME280;37953;52.806;18.270;2023-03-17T10:42:10;101156.00;;;6.72;92.47
51928;BME280;37953;52.806;18.270;2023-03-17T10:44:43;101148.31;;;6.74;91.05
51928;BME280;37953;52.806;18.270;2023-03-17T10:47:30;101146.66;;;6.76;89.78
51928;BME280;37953;52.806;18.270;2023-03-17T10:49:58;101152.75;;;6.78;90.99
51928;BME280;37953;52.806;18.270;2023-03-17T10:52:29;101149.31;;;6.79;90.13
51928;BME280;37953;52.806;18.270;2023-03-17T10:54:59;101142.47;;;6.80;89.09
51928;BME280;37953;52.806;18.270;2023-03-17T10:57:26;101140.81;;;6.82;90.25
51928;BME280;37953;52.806;18.270;2023-03-17T10:59:54;101137.38;;;6.83;90.60
51928;BME280;37953;52.806;18.270;2023-03-17T11:02:26;101152.06;;;6.84;91.00
51928;BME280;37953;52.806;18.270;2023-03-17T11:05:26;101147.81;;;6.86;88.77
51928;BME280;37953;52.806;18.270;2023-03-17T11:07:44;101146.97;;;6.87;87.33
51928;BME280;37953;52.806;18.270;2023-03-17T11:10:16;101139.28;;;6.88;87.31
51928;BME280;37953;52.806;18.270;2023-03-17T11:12:42;101137.59;;;6.90;86.72
51928;BME280;37953;52.806;18.270;2023-03-17T11:15:17;101131.59;;;6.91;85.85
51928;BME280;37953;52.806;18.270;2023-03-17T11:20:33;101104.94;;;6.92;84.92
51928;BME280;37953;52.806;18.270;2023-03-17T11:25:44;101099.84;;;6.96;86.40
51928;BME280;37953;52.806;18.270;2023-03-17T11:28:18;101096.47;;;6.97;86.62
51928;BME280;37953;52.806;18.270;2023-03-17T11:30:53;101093.88;;;6.98;86.25
51928;BME280;37953;52.806;18.270;2023-03-17T11:47:30;101072.91;;;7.18;86.78
51928;BME280;37953;52.806;18.270;2023-03-17T11:49:48;101077.38;;;7.25;86.84
51928;BME280;37953;52.806;18.270;2023-03-17T11:52:27;101071.53;;;7.32;86.08
51928;BME280;37953;52.806;18.270;2023-03-17T11:57:41;101071.03;;;7.47;83.37
51928;BME280;37953;52.806;18.270;2023-03-17T12:02:51;101059.28;;;7.58;81.05
51928;BME280;37953;52.806;18.270;2023-03-17T12:05:21;101050.75;;;7.62;80.00
51928;BME280;37953;52.806;18.270;2023-03-17T12:07:50;101037.88;;;7.65;77.75
51928;BME280;37953;52.806;18.270;2023-03-17T12:15:35;101037.19;;;7.72;75.84
51928;BME280;37953;52.806;18.270;2023-03-17T12:18:14;101031.25;;;7.75;74.78
51928;BME280;37953;52.806;18.270;2023-03-17T12:23:30;101027.97;;;7.84;76.37
51928;BME280;37953;52.806;18.270;2023-03-17T12:26:08;101009.16;;;7.91;77.84
51928;BME280;37953;52.806;18.270;2023-03-17T12:33:58;101019.16;;;8.13;77.97
51928;BME280;37953;52.806;18.270;2023-03-17T12:36:35;101019.28;;;8.20;75.07
51928;BME280;37953;52.806;18.270;2023-03-17T12:39:07;101000.44;;;8.27;73.57
51928;BME280;37953;52.806;18.270;2023-03-17T12:47:05;100993.06;;;8.44;70.49
51928;BME280;37953;52.806;18.270;2023-03-17T12:54:17;100983.84;;;8.58;72.04
51928;BME280;37953;52.806;18.270;2023-03-17T12:56:46;100992.59;;;8.65;72.82
51928;BME280;37953;52.806;18.270;2023-03-17T12:59:18;100978.91;;;8.70;73.02
51928;BME280;37953;52.806;18.270;2023-03-17T13:01:53;100972.13;;;8.77;71.27
51928;BME280;37953;52.806;18.270;2023-03-17T13:04:27;100977.44;;;8.85;70.55
51928;BME280;37953;52.806;18.270;2023-03-17T13:06:58;100964.56;;;8.91;70.23
51928;BME280;37953;52.806;18.270;2023-03-17T13:11:57;100949.25;;;9.03;70.78
51928;BME280;37953;52.806;18.270;2023-03-17T13:19:53;100940.88;;;9.20;64.90
51928;BME280;37953;52.806;18.270;2023-03-17T13:24:47;100942.72;;;9.28;65.26
51928;BME280;37953;52.806;18.270;2023-03-17T13:30:40;100935.09;;;9.37;65.29
51928;BME280;37953;52.806;18.270;2023-03-17T13:33:20;100929.09;;;9.42;66.67
51928;BME280;37953;52.806;18.270;2023-03-17T13:35:46;100934.38;;;9.46;64.21
51928;BME280;37953;52.806;18.270;2023-03-17T13:41:36;100934.44;;;9.51;60.69
51928;BME280;37953;52.806;18.270;2023-03-17T13:46:52;100919.84;;;9.57;60.28
51928;BME280;37953;52.806;18.270;2023-03-17T13:51:52;100909.56;;;9.65;63.65
51928;BME280;37953;52.806;18.270;2023-03-17T13:54:29;100911.34;;;9.68;64.53
51928;BME280;37953;52.806;18.270;2023-03-17T14:00:30;100911.41;;;9.74;65.59
51928;BME280;37953;52.806;18.270;2023-03-17T14:02:36;100911.41;;;9.75;63.39
51928;BME280;37953;52.806;18.270;2023-03-17T14:05:07;100901.03;;;9.75;62.58
51928;BME280;37953;52.806;18.270;2023-03-17T14:07:57;100908.84;;;9.77;63.19
51928;BME280;37953;52.806;18.270;2023-03-17T14:10:25;100915.78;;;9.78;63.21
51928;BME280;37953;52.806;18.270;2023-03-17T14:12:59;100909.72;;;9.77;64.51
51928;BME280;37953;52.806;18.270;2023-03-17T14:15:31;100900.19;;;9.76;64.72
51928;BME280;37953;52.806;18.270;2023-03-17T14:18:02;100902.75;;;9.73;63.09
51928;BME280;37953;52.806;18.270;2023-03-17T14:20:36;100890.63;;;9.72;63.02
51928;BME280;37953;52.806;18.270;2023-03-17T14:23:03;100883.69;;;9.71;61.22
51928;BME280;37953;52.806;18.270;2023-03-17T14:25:30;100885.38;;;9.69;61.43
51928;BME280;37953;52.806;18.270;2023-03-17T14:27:57;100877.59;;;9.69;62.94
51928;BME280;37953;52.806;18.270;2023-03-17T14:30:24;100865.47;;;9.67;63.06
51928;BME280;37953;52.806;18.270;2023-03-17T14:33:20;100879.31;;;9.66;63.09
51928;BME280;37953;52.806;18.270;2023-03-17T14:35:40;100869.78;;;9.63;63.70
51928;BME280;37953;52.806;18.270;2023-03-17T14:40:45;100884.41;;;9.60;64.09
51928;BME280;37953;52.806;18.270;2023-03-17T14:43:11;100875.75;;;9.59;63.65
51928;BME280;37953;52.806;18.270;2023-03-17T14:45:47;100878.31;;;9.56;63.23
51928;BME280;37953;52.806;18.270;2023-03-17T14:48:15;100870.53;;;9.56;63.73
51928;BME280;37953;52.806;18.270;2023-03-17T14:50:54;100882.63;;;9.55;64.07
51928;BME280;37953;52.806;18.270;2023-03-17T14:53:22;100877.41;;;9.54;63.75
51928;BME280;37953;52.806;18.270;2023-03-17T14:55:49;100867.91;;;9.53;63.32
51928;BME280;37953;52.806;18.270;2023-03-17T15:01:20;100883.44;;;9.51;62.47
51928;BME280;37953;52.806;18.270;2023-03-17T15:03:54;100876.53;;;9.50;61.49
51928;BME280;37953;52.806;18.270;2023-03-17T15:06:26;100877.38;;;9.51;61.46
51928;BME280;37953;52.806;18.270;2023-03-17T15:08:52;100889.47;;;9.50;62.22
51928;BME280;37953;52.806;18.270;2023-03-17T15:11:20;100893.78;;;9.50;64.56
51928;BME280;37953;52.806;18.270;2023-03-17T15:13:46;100891.19;;;9.48;67.41
51928;BME280;37953;52.806;18.270;2023-03-17T15:16:23;100889.44;;;9.47;68.14
51928;BME280;37953;52.806;18.270;2023-03-17T15:19:05;100892.03;;;9.47;69.08
51928;BME280;37953;52.806;18.270;2023-03-17T15:21:33;100879.91;;;9.46;68.25
51928;BME280;37953;52.806;18.270;2023-03-17T15:24:16;100869.53;;;9.46;68.71
51928;BME280;37953;52.806;18.270;2023-03-17T15:26:58;100866.06;;;9.46;69.53
51928;BME280;37953;52.806;18.270;2023-03-17T15:29:25;100869.50;;;9.45;70.01
51928;BME280;37953;52.806;18.270;2023-03-17T15:31:50;100870.34;;;9.44;70.35
51928;BME280;37953;52.806;18.270;2023-03-17T15:34:16;100873.81;;;9.43;70.51
51928;BME280;37953;52.806;18.270;2023-03-17T15:36:42;100879.81;;;9.42;70.72
51928;BME280;37953;52.806;18.270;2023-03-17T15:39:11;100877.25;;;9.40;71.81
51928;BME280;37953;52.806;18.270;2023-03-17T15:41:37;100872.03;;;9.38;72.04
51928;BME280;37953;52.806;18.270;2023-03-17T15:44:03;100867.66;;;9.37;71.65
51928;BME280;37953;52.806;18.270;2023-03-17T15:46:29;100872.84;;;9.36;71.17
51928;BME280;37953;52.806;18.270;2023-03-17T15:48:56;100878.88;;;9.35;71.50
51928;BME280;37953;52.806;18.270;2023-03-17T15:51:35;100886.66;;;9.33;71.76
51928;BME280;37953;52.806;18.270;2023-03-17T15:54:01;100881.44;;;9.32;71.72
51928;BME280;37953;52.806;18.270;2023-03-17T15:56:27;100877.94;;;9.30;72.79